sensor_id;sensor_type;location;lat;lon;timestamp;pressure;altitude;pressure_sealevel;temperature;humidity
25238;BME280;13185;50.872;5.306;2023-05-22T00:02:01;101158.69;;;17.82;84.33
25238;BME280;13185;50.872;5.306;2023-05-22T00:04:27;101155.41;;;17.78;84.40
25238;BME280;13185;50.872;5.306;2023-05-22T00:06:55;101153.97;;;17.74;84.37
25238;BME280;13185;50.872;5.306;2023-05-22T00:09:21;101151.53;;;17.71;84.39
25238;BME280;13185;50.872;5.306;2023-05-22T00:11:47;101148.19;;;17.68;84.98
25238;BME280;13185;50.872;5.306;2023-05-22T00:14:12;101161.91;;;17.66;84.98
25238;BME280;13185;50.872;5.306;2023-05-22T00:16:38;101144.91;;;17.64;85.30
25238;BME280;13185;50.872;5.306;2023-05-22T00:19:04;101150.59;;;17.61;84.96
25238;BME280;13185;50.872;5.306;2023-05-22T00:21:32;101137.31;;;17.58;85.14
25238;BME280;13185;50.872;5.306;2023-05-22T00:24:00;101138.59;;;17.54;85.34
25238;BME280;13185;50.872;5.306;2023-05-22T00:26:26;101129.00;;;17.50;85.81
25238;BME280;13185;50.872;5.306;2023-05-22T00:28:51;101146.56;;;17.46;85.81
25238;BME280;13185;50.872;5.306;2023-05-22T00:31:17;101136.00;;;17.43;86.12
25238;BME280;13185;50.872;5.306;2023-05-22T00:33:42;101136.69;;;17.35;86.38
25238;BME280;13185;50.872;5.306;2023-05-22T00:36:08;101133.53;;;17.30;86.59
25238;BME280;13185;50.872;5.306;2023-05-22T00:38:34;101125.06;;;17.23;87.01
25238;BME280;13185;50.872;5.306;2023-05-22T00:41:03;101128.78;;;17.22;87.42
25238;BME280;13185;50.872;5.306;2023-05-22T00:43:29;101130.88;;;17.19;87.24
25238;BME280;13185;50.872;5.306;2023-05-22T00:45:55;101129.59;;;17.13;87.87
25238;BME280;13185;50.872;5.306;2023-05-22T00:48:21;101130.88;;;17.09;88.19
25238;BME280;13185;50.872;5.306;2023-05-22T00:50:48;101129.97;;;17.09;88.18
25238;BME280;13185;50.872;5.306;2023-05-22T00:53:14;101129.13;;;17.08;88.16
25238;BME280;13185;50.872;5.306;2023-05-22T00:55:42;101127.53;;;17.06;88.29
25238;BME280;13185;50.872;5.306;2023-05-22T00:58:09;101134.09;;;17.03;88.87
25238;BME280;13185;50.872;5.306;2023-05-22T01:00:39;101128.22;;;16.98;89.42
25238;BME280;13185;50.872;5.306;2023-05-22T01:03:06;101131.34;;;16.93;89.59
25238;BME280;13185;50.872;5.306;2023-05-22T01:05:33;101129.63;;;16.92;89.64
25238;BME280;13185;50.872;5.306;2023-05-22T01:08:01;101120.06;;;16.88;89.92
25238;BME280;13185;50.872;5.306;2023-05-22T01:10:28;101125.00;;;16.83;90.17
25238;BME280;13185;50.872;5.306;2023-05-22T01:15:38;101124.56;;;16.78;90.35
25238;BME280;13185;50.872;5.306;2023-05-22T01:18:19;101127.38;;;16.77;90.47
25238;BME280;13185;50.872;5.306;2023-05-22T01:31:51;101117.63;;;16.53;91.34
25238;BME280;13185;50.872;5.306;2023-05-22T01:34:18;101122.47;;;16.50;91.36
25238;BME280;13185;50.872;5.306;2023-05-22T01:36:45;101118.56;;;16.42;91.55
25238;BME280;13185;50.872;5.306;2023-05-22T01:39:13;101124.59;;;16.35;91.83
25238;BME280;13185;50.872;5.306;2023-05-22T01:41:39;101124.88;;;16.32;91.97
25238;BME280;13185;50.872;5.306;2023-05-22T01:44:05;101132.41;;;16.28;92.06
25238;BME280;13185;50.872;5.306;2023-05-22T01:46:31;101133.78;;;16.23;92.18
25238;BME280;13185;50.872;5.306;2023-05-22T01:48:57;101130.59;;;16.17;92.26
25238;BME280;13185;50.872;5.306;2023-05-22T01:51:42;101135.28;;;16.15;92.05
25238;BME280;13185;50.872;5.306;2023-05-22T01:54:21;101132.22;;;16.09;91.96
25238;BME280;13185;50.872;5.306;2023-05-22T01:57:09;101119.06;;;16.04;91.59
25238;BME280;13185;50.872;5.306;2023-05-22T02:00:18;101124.88;;;16.00;91.20
25238;BME280;13185;50.872;5.306;2023-05-22T02:02:27;101126.22;;;15.94;91.52
25238;BME280;13185;50.872;5.306;2023-05-22T02:04:58;101124.19;;;15.86;91.55
25238;BME280;13185;50.872;5.306;2023-05-22T02:07:25;101123.47;;;15.84;91.58
25238;BME280;13185;50.872;5.306;2023-05-22T02:09:53;101128.25;;;15.81;91.74
25238;BME280;13185;50.872;5.306;2023-05-22T02:12:21;101132.06;;;15.78;91.58
25238;BME280;13185;50.872;5.306;2023-05-22T02:14:47;101133.41;;;15.73;91.72
25238;BME280;13185;50.872;5.306;2023-05-22T02:17:13;101138.22;;;15.69;91.85
25238;BME280;13185;50.872;5.306;2023-05-22T02:19:39;101143.03;;;15.66;92.05
25238;BME280;13185;50.872;5.306;2023-05-22T02:22:04;101137.13;;;15.61;91.82
25238;BME280;13185;50.872;5.306;2023-05-22T02:24:34;101144.72;;;15.55;91.98
25238;BME280;13185;50.872;5.306;2023-05-22T02:27:01;101136.75;;;15.54;92.22
25238;BME280;13185;50.872;5.306;2023-05-22T02:29:28;101140.66;;;15.50;92.23
25238;BME280;13185;50.872;5.306;2023-05-22T02:31:54;101137.22;;;15.48;92.59
25238;BME280;13185;50.872;5.306;2023-05-22T02:34:20;101132.22;;;15.43;92.74
25238;BME280;13185;50.872;5.306;2023-05-22T02:36:46;101141.28;;;15.42;92.75
25238;BME280;13185;50.872;5.306;2023-05-22T02:39:12;101135.53;;;15.36;92.93
25238;BME280;13185;50.872;5.306;2023-05-22T02:41:38;101132.31;;;15.30;93.33
25238;BME280;13185;50.872;5.306;2023-05-22T02:44:04;101126.31;;;15.27;93.12
25238;BME280;13185;50.872;5.306;2023-05-22T02:46:29;101133.69;;;15.25;93.46
25238;BME280;13185;50.872;5.306;2023-05-22T02:48:55;101125.84;;;15.22;93.13
25238;BME280;13185;50.872;5.306;2023-05-22T02:51:20;101125.94;;;15.20;93.18
25238;BME280;13185;50.872;5.306;2023-05-22T02:53:46;101127.78;;;15.20;93.16
25238;BME280;13185;50.872;5.306;2023-05-22T02:56:11;101121.03;;;15.14;93.36
25238;BME280;13185;50.872;5.306;2023-05-22T02:58:37;101118.69;;;15.10;93.67
25238;BME280;13185;50.872;5.306;2023-05-22T03:01:04;101127.91;;;15.07;93.81
25238;BME280;13185;50.872;5.306;2023-05-22T03:03:33;101128.63;;;14.98;94.20
25238;BME280;13185;50.872;5.306;2023-05-22T03:05:59;101133.41;;;14.94;94.28
25238;BME280;13185;50.872;5.306;2023-05-22T03:08:25;101137.22;;;14.92;94.65
25238;BME280;13185;50.872;5.306;2023-05-22T03:10:52;101123.94;;;14.89;94.78
25238;BME280;13185;50.872;5.306;2023-05-22T03:13:18;101129.47;;;14.87;94.66
25238;BME280;13185;50.872;5.306;2023-05-22T03:15:43;101132.28;;;14.86;94.84
25238;BME280;13185;50.872;5.306;2023-05-22T03:18:12;101123.47;;;14.84;94.96
25238;BME280;13185;50.872;5.306;2023-05-22T03:20:39;101129.00;;;14.82;95.28
25238;BME280;13185;50.872;5.306;2023-05-22T03:23:04;101126.41;;;14.81;95.74
25238;BME280;13185;50.872;5.306;2023-05-22T03:25:31;101130.19;;;14.78;96.19
25238;BME280;13185;50.872;5.306;2023-05-22T03:27:56;101125.78;;;14.77;96.05
25238;BME280;13185;50.872;5.306;2023-05-22T03:30:24;101124.19;;;14.75;96.19
25238;BME280;13185;50.872;5.306;2023-05-22T03:33:03;101128.47;;;14.77;96.17
25238;BME280;13185;50.872;5.306;2023-05-22T03:35:29;101124.19;;;14.75;96.74
25238;BME280;13185;50.872;5.306;2023-05-22T03:37:54;101120.63;;;14.74;96.56
25238;BME280;13185;50.872;5.306;2023-05-22T03:40:21;101119.88;;;14.72;97.00
25238;BME280;13185;50.872;5.306;2023-05-22T03:42:46;101118.50;;;14.66;97.52
25238;BME280;13185;50.872;5.306;2023-05-22T03:45:14;101125.00;;;14.64;98.06
25238;BME280;13185;50.872;5.306;2023-05-22T03:47:40;101126.00;;;14.63;98.10
25238;BME280;13185;50.872;5.306;2023-05-22T03:50:06;101121.34;;;14.65;98.33
25238;BME280;13185;50.872;5.306;2023-05-22T03:52:32;101117.78;;;14.64;98.52
25238;BME280;13185;50.872;5.306;2023-05-22T03:54:58;101119.63;;;14.64;98.77
25238;BME280;13185;50.872;5.306;2023-05-22T03:57:24;101126.84;;;14.63;98.97
25238;BME280;13185;50.872;5.306;2023-05-22T03:59:49;101124.03;;;14.65;98.67
25238;BME280;13185;50.872;5.306;2023-05-22T04:02:15;101122.44;;;14.62;99.42
25238;BME280;13185;50.872;5.306;2023-05-22T04:04:41;101121.47;;;14.63;99.57
25238;BME280;13185;50.872;5.306;2023-05-22T04:07:11;101134.09;;;14.63;99.95
25238;BME280;13185;50.872;5.306;2023-05-22T04:09:38;101123.16;;;14.64;99.94
25238;BME280;13185;50.872;5.306;2023-05-22T04:12:04;101128.56;;;14.64;100.00
25238;BME280;13185;50.872;5.306;2023-05-22T04:14:29;101121.59;;;14.62;100.00
25238;BME280;13185;50.872;5.306;2023-05-22T04:16:55;101126.97;;;14.62;100.00
25238;BME280;13185;50.872;5.306;2023-05-22T04:19:20;101135.19;;;14.60;100.00
25238;BME280;13185;50.872;5.306;2023-05-22T04:21:47;101137.78;;;14.62;100.00
25238;BME280;13185;50.872;5.306;2023-05-22T04:24:13;101137.91;;;14.60;100.00
25238;BME280;13185;50.872;5.306;2023-05-22T04:26:38;101138.88;;;14.59;100.00
25238;BME280;13185;50.872;5.306;2023-05-22T04:29:04;101144.16;;;14.61;100.00
25238;BME280;13185;50.872;5.306;2023-05-22T04:31:35;101153.09;;;14.61;100.00
25238;BME280;13185;50.872;5.306;2023-05-22T04:34:01;101146.97;;;14.59;100.00
25238;BME280;13185;50.872;5.306;2023-05-22T04:36:26;101155.94;;;14.60;100.00
25238;BME280;13185;50.872;5.306;2023-05-22T04:38:54;101146.00;;;14.60;100.00
25238;BME280;13185;50.872;5.306;2023-05-22T04:41:20;101147.59;;;14.63;100.00
25238;BME280;13185;50.872;5.306;2023-05-22T04:43:47;101147.59;;;14.63;100.00
25238;BME280;13185;50.872;5.306;2023-05-22T04:46:15;101151.41;;;14.60;100.00
25238;BME280;13185;50.872;5.306;2023-05-22T04:48:41;101140.69;;;14.59;100.00
25238;BME280;13185;50.872;5.306;2023-05-22T04:51:07;101148.78;;;14.59;100.00
25238;BME280;13185;50.872;5.306;2023-05-22T04:53:34;101146.09;;;14.59;100.00
25238;BME280;13185;50.872;5.306;2023-05-22T04:56:01;101148.78;;;14.59;100.00
25238;BME280;13185;50.872;5.306;2023-05-22T04:58:27;101150.75;;;14.57;100.00
25238;BME280;13185;50.872;5.306;2023-05-22T05:00:54;101146.34;;;14.56;100.00
25238;BME280;13185;50.872;5.306;2023-05-22T05:03:22;101152.22;;;14.50;100.00
25238;BME280;13185;50.872;5.306;2023-05-22T05:05:48;101151.44;;;14.48;100.00
25238;BME280;13185;50.872;5.306;2023-05-22T05:08:13;101156.63;;;14.51;100.00
25238;BME280;13185;50.872;5.306;2023-05-22T05:10:39;101158.47;;;14.50;100.00
25238;BME280;13185;50.872;5.306;2023-05-22T05:13:05;101169.47;;;14.47;100.00
25238;BME280;13185;50.872;5.306;2023-05-22T05:15:34;101157.63;;;14.50;100.00
25238;BME280;13185;50.872;5.306;2023-05-22T05:18:01;101175.53;;;14.51;100.00
25238;BME280;13185;50.872;5.306;2023-05-22T05:20:26;101160.41;;;14.48;100.00
25238;BME280;13185;50.872;5.306;2023-05-22T05:22:53;101157.09;;;14.44;100.00
25238;BME280;13185;50.872;5.306;2023-05-22T05:25:19;101156.31;;;14.42;100.00
25238;BME280;13185;50.872;5.306;2023-05-22T05:27:46;101156.84;;;14.48;100.00
25238;BME280;13185;50.872;5.306;2023-05-22T05:30:12;101164.84;;;14.49;100.00
25238;BME280;13185;50.872;5.306;2023-05-22T05:33:05;101159.47;;;14.49;100.00
25238;BME280;13185;50.872;5.306;2023-05-22T05:35:53;101165.72;;;14.50;100.00
25238;BME280;13185;50.872;5.306;2023-05-22T05:38:22;101160.31;;;14.50;100.00
25238;BME280;13185;50.872;5.306;2023-05-22T05:40:48;101162.25;;;14.48;100.00
25238;BME280;13185;50.872;5.306;2023-05-22T05:43:14;101166.91;;;14.46;100.00
25238;BME280;13185;50.872;5.306;2023-05-22T05:45:41;101158.69;;;14.47;100.00
25238;BME280;13185;50.872;5.306;2023-05-22T05:48:08;101157.63;;;14.50;100.00
25238;BME280;13185;50.872;5.306;2023-05-22T05:50:38;101164.72;;;14.51;100.00
25238;BME280;13185;50.872;5.306;2023-05-22T05:53:03;101161.06;;;14.52;100.00
25238;BME280;13185;50.872;5.306;2023-05-22T05:55:29;101166.31;;;14.53;100.00
25238;BME280;13185;50.872;5.306;2023-05-22T05:57:58;101158.97;;;14.55;100.00
25238;BME280;13185;50.872;5.306;2023-05-22T06:00:34;101158.97;;;14.55;100.00
25238;BME280;13185;50.872;5.306;2023-05-22T06:03:00;101157.88;;;14.58;100.00
25238;BME280;13185;50.872;5.306;2023-05-22T06:05:44;101160.56;;;14.58;100.00
25238;BME280;13185;50.872;5.306;2023-05-22T06:08:18;101166.59;;;14.61;100.00
25238;BME280;13185;50.872;5.306;2023-05-22T06:10:47;101160.47;;;14.59;100.00
25238;BME280;13185;50.872;5.306;2023-05-22T06:13:15;101164.03;;;14.60;100.00
25238;BME280;13185;50.872;5.306;2023-05-22T06:15:41;101161.41;;;14.58;100.00
25238;BME280;13185;50.872;5.306;2023-05-22T06:18:06;101164.75;;;14.62;100.00
25238;BME280;13185;50.872;5.306;2023-05-22T06:20:32;101173.59;;;14.64;100.00
25238;BME280;13185;50.872;5.306;2023-05-22T06:22:58;101180.09;;;14.61;100.00
25238;BME280;13185;50.872;5.306;2023-05-22T06:25:24;101183.53;;;14.63;100.00
25238;BME280;13185;50.872;5.306;2023-05-22T06:27:54;101195.31;;;14.62;100.00
25238;BME280;13185;50.872;5.306;2023-05-22T06:30:21;101185.38;;;14.63;100.00
25238;BME280;13185;50.872;5.306;2023-05-22T06:32:48;101196.06;;;14.64;100.00
25238;BME280;13185;50.872;5.306;2023-05-22T06:35:14;101201.44;;;14.64;100.00
25238;BME280;13185;50.872;5.306;2023-05-22T06:37:40;101192.38;;;14.65;100.00
25238;BME280;13185;50.872;5.306;2023-05-22T06:40:08;101194.63;;;14.71;100.00
25238;BME280;13185;50.872;5.306;2023-05-22T06:42:53;101202.72;;;14.71;100.00
25238;BME280;13185;50.872;5.306;2023-05-22T06:45:30;101213.28;;;14.75;100.00
25238;BME280;13185;50.872;5.306;2023-05-22T06:48:16;101216.59;;;14.78;100.00
25238;BME280;13185;50.872;5.306;2023-05-22T06:51:02;101211.72;;;14.83;100.00
25238;BME280;13185;50.872;5.306;2023-05-22T06:53:29;101207.16;;;14.84;100.00
25238;BME280;13185;50.872;5.306;2023-05-22T06:55:55;101216.00;;;14.86;100.00
25238;BME280;13185;50.872;5.306;2023-05-22T06:58:31;101217.09;;;14.83;100.00
25238;BME280;13185;50.872;5.306;2023-05-22T07:00:57;101226.19;;;14.82;100.00
25238;BME280;13185;50.872;5.306;2023-05-22T07:03:31;101226.31;;;14.81;100.00
25238;BME280;13185;50.872;5.306;2023-05-22T07:06:15;101231.47;;;14.84;100.00
25238;BME280;13185;50.872;5.306;2023-05-22T07:08:41;101225.94;;;14.85;100.00
25238;BME280;13185;50.872;5.306;2023-05-22T07:11:07;101221.16;;;14.89;100.00
25238;BME280;13185;50.872;5.306;2023-05-22T07:13:36;101224.50;;;14.92;100.00
25238;BME280;13185;50.872;5.306;2023-05-22T07:16:01;101230.50;;;14.96;100.00
25238;BME280;13185;50.872;5.306;2023-05-22T07:18:28;101234.94;;;14.97;100.00
25238;BME280;13185;50.872;5.306;2023-05-22T07:20:55;101236.78;;;14.96;100.00
25238;BME280;13185;50.872;5.306;2023-05-22T07:23:22;101235.91;;;14.96;100.00
25238;BME280;13185;50.872;5.306;2023-05-22T07:25:48;101232.97;;;14.99;100.00
25238;BME280;13185;50.872;5.306;2023-05-22T07:28:15;101237.38;;;15.00;100.00
25238;BME280;13185;50.872;5.306;2023-05-22T07:30:57;101235.22;;;15.05;100.00
25238;BME280;13185;50.872;5.306;2023-05-22T07:33:23;101233.38;;;15.06;100.00
25238;BME280;13185;50.872;5.306;2023-05-22T07:35:49;101238.78;;;15.06;100.00
25238;BME280;13185;50.872;5.306;2023-05-22T07:38:17;101241.22;;;15.09;100.00
25238;BME280;13185;50.872;5.306;2023-05-22T07:40:50;101238.41;;;15.10;100.00
25238;BME280;13185;50.872;5.306;2023-05-22T07:43:16;101241.34;;;15.07;100.00
25238;BME280;13185;50.872;5.306;2023-05-22T07:45:42;101243.06;;;15.08;100.00
25238;BME280;13185;50.872;5.306;2023-05-22T07:48:11;101247.16;;;15.14;100.00
25238;BME280;13185;50.872;5.306;2023-05-22T07:50:37;101247.03;;;15.15;100.00
25238;BME280;13185;50.872;5.306;2023-05-22T07:53:03;101250.47;;;15.17;100.00
25238;BME280;13185;50.872;5.306;2023-05-22T07:55:32;101251.94;;;15.21;100.00
25238;BME280;13185;50.872;5.306;2023-05-22T07:57:58;101247.41;;;15.22;100.00
25238;BME280;13185;50.872;5.306;2023-05-22T08:00:31;101257.97;;;15.25;100.00
25238;BME280;13185;50.872;5.306;2023-05-22T08:02:57;101255.03;;;15.28;100.00
25238;BME280;13185;50.872;5.306;2023-05-22T08:05:23;101257.72;;;15.28;100.00
25238;BME280;13185;50.872;5.306;2023-05-22T08:07:48;101255.53;;;15.33;100.00
25238;BME280;13185;50.872;5.306;2023-05-22T08:10:16;101256.03;;;15.38;100.00
25238;BME280;13185;50.872;5.306;2023-05-22T08:12:42;101264.53;;;15.45;100.00
25238;BME280;13185;50.872;5.306;2023-05-22T08:15:07;101270.78;;;15.45;100.00
25238;BME280;13185;50.872;5.306;2023-05-22T08:17:33;101272.25;;;15.49;100.00
25238;BME280;13185;50.872;5.306;2023-05-22T08:19:59;101254.31;;;15.48;100.00
25238;BME280;13185;50.872;5.306;2023-05-22T08:22:24;101269.81;;;15.46;100.00
25238;BME280;13185;50.872;5.306;2023-05-22T08:24:50;101264.38;;;15.35;100.00
25238;BME280;13185;50.872;5.306;2023-05-22T08:27:15;101271.75;;;15.33;100.00
25238;BME280;13185;50.872;5.306;2023-05-22T08:29:41;101259.56;;;15.27;100.00
25238;BME280;13185;50.872;5.306;2023-05-22T08:32:06;101263.53;;;15.35;100.00
25238;BME280;13185;50.872;5.306;2023-05-22T08:34:32;101265.13;;;15.37;100.00
25238;BME280;13185;50.872;5.306;2023-05-22T08:36:58;101265.59;;;15.42;100.00
25238;BME280;13185;50.872;5.306;2023-05-22T08:39:23;101273.50;;;15.45;100.00
25238;BME280;13185;50.872;5.306;2023-05-22T08:41:49;101274.69;;;15.41;100.00
25238;BME280;13185;50.872;5.306;2023-05-22T08:44:15;101268.31;;;15.42;100.00
25238;BME280;13185;50.872;5.306;2023-05-22T08:46:41;101271.00;;;15.42;100.00
25238;BME280;13185;50.872;5.306;2023-05-22T08:49:08;101275.09;;;15.48;100.00
25238;BME280;13185;50.872;5.306;2023-05-22T08:51:39;101274.22;;;15.47;100.00
25238;BME280;13185;50.872;5.306;2023-05-22T08:54:05;101265.75;;;15.52;100.00
25238;BME280;13185;50.872;5.306;2023-05-22T08:56:32;101281.63;;;15.56;100.00
25238;BME280;13185;50.872;5.306;2023-05-22T08:58:58;101273.16;;;15.61;100.00
25238;BME280;13185;50.872;5.306;2023-05-22T09:01:25;101271.22;;;15.74;100.00
25238;BME280;13185;50.872;5.306;2023-05-22T09:03:51;101274.41;;;15.79;100.00
25238;BME280;13185;50.872;5.306;2023-05-22T09:06:17;101272.06;;;15.86;100.00
25238;BME280;13185;50.872;5.306;2023-05-22T09:08:42;101275.25;;;15.91;100.00
25238;BME280;13185;50.872;5.306;2023-05-22T09:11:08;101277.47;;;15.97;100.00
25238;BME280;13185;50.872;5.306;2023-05-22T09:13:38;101273.41;;;16.03;100.00
25238;BME280;13185;50.872;5.306;2023-05-22T09:16:11;101278.31;;;16.09;100.00
25238;BME280;13185;50.872;5.306;2023-05-22T09:18:38;101283.75;;;16.09;100.00
25238;BME280;13185;50.872;5.306;2023-05-22T09:21:05;101269.94;;;16.12;100.00
25238;BME280;13185;50.872;5.306;2023-05-22T09:23:31;101267.50;;;16.09;100.00
25238;BME280;13185;50.872;5.306;2023-05-22T09:25:57;101273.50;;;16.12;100.00
25238;BME280;13185;50.872;5.306;2023-05-22T09:28:24;101272.53;;;16.13;100.00
25238;BME280;13185;50.872;5.306;2023-05-22T09:30:51;101266.63;;;16.20;100.00
25238;BME280;13185;50.872;5.306;2023-05-22T09:33:18;101268.09;;;16.24;100.00
25238;BME280;13185;50.872;5.306;2023-05-22T09:35:47;101270.78;;;16.24;100.00
25238;BME280;13185;50.872;5.306;2023-05-22T09:38:14;101265.88;;;16.29;100.00
25238;BME280;13185;50.872;5.306;2023-05-22T09:40:40;101278.78;;;16.36;100.00
25238;BME280;13185;50.872;5.306;2023-05-22T09:43:09;101278.03;;;16.34;100.00
25238;BME280;13185;50.872;5.306;2023-05-22T09:45:36;101277.78;;;16.37;99.93
25238;BME280;13185;50.872;5.306;2023-05-22T09:48:02;101277.91;;;16.47;99.87
25238;BME280;13185;50.872;5.306;2023-05-22T09:50:28;101275.66;;;16.52;98.99
25238;BME280;13185;50.872;5.306;2023-05-22T09:52:54;101270.72;;;16.57;98.48
25238;BME280;13185;50.872;5.306;2023-05-22T09:55:21;101274.88;;;16.61;98.46
25238;BME280;13185;50.872;5.306;2023-05-22T09:57:50;101270.06;;;16.65;98.42
25238;BME280;13185;50.872;5.306;2023-05-22T10:00:17;101279.81;;;16.67;97.76
25238;BME280;13185;50.872;5.306;2023-05-22T10:02:53;101277.59;;;16.72;97.74
25238;BME280;13185;50.872;5.306;2023-05-22T10:05:24;101274.38;;;16.67;98.04
25238;BME280;13185;50.872;5.306;2023-05-22T10:07:56;101276.47;;;16.75;97.38
25238;BME280;13185;50.872;5.306;2023-05-22T10:10:26;101273.38;;;16.80;96.99
25238;BME280;13185;50.872;5.306;2023-05-22T10:12:56;101271.47;;;16.91;96.74
25238;BME280;13185;50.872;5.306;2023-05-22T10:15:26;101267.84;;;17.02;96.37
25238;BME280;13185;50.872;5.306;2023-05-22T10:17:51;101264.38;;;17.11;95.31
25238;BME280;13185;50.872;5.306;2023-05-22T10:20:19;101275.53;;;17.18;94.86
25238;BME280;13185;50.872;5.306;2023-05-22T10:22:46;101264.69;;;17.18;93.91
25238;BME280;13185;50.872;5.306;2023-05-22T10:25:13;101275.44;;;17.29;93.85
25238;BME280;13185;50.872;5.306;2023-05-22T10:27:39;101272.94;;;17.37;93.26
25238;BME280;13185;50.872;5.306;2023-05-22T10:32:45;101262.28;;;17.45;92.64
25238;BME280;13185;50.872;5.306;2023-05-22T10:37:49;101266.59;;;17.48;92.52
25238;BME280;13185;50.872;5.306;2023-05-22T10:40:32;101262.50;;;17.53;92.23
25238;BME280;13185;50.872;5.306;2023-05-22T10:43:02;101260.16;;;17.49;91.93
25238;BME280;13185;50.872;5.306;2023-05-22T10:45:28;101263.22;;;17.55;91.99
25238;BME280;13185;50.872;5.306;2023-05-22T10:48:07;101269.41;;;17.67;91.38
25238;BME280;13185;50.872;5.306;2023-05-22T10:50:34;101265.25;;;17.84;91.06
25238;BME280;13185;50.872;5.306;2023-05-22T10:53:19;101262.44;;;17.95;90.49
25238;BME280;13185;50.872;5.306;2023-05-22T10:55:56;101262.19;;;18.08;89.78
25238;BME280;13185;50.872;5.306;2023-05-22T10:58:29;101259.50;;;18.17;89.34
25238;BME280;13185;50.872;5.306;2023-05-22T11:01:18;101259.38;;;18.29;88.75
25238;BME280;13185;50.872;5.306;2023-05-22T11:06:45;101255.34;;;18.23;88.45
25238;BME280;13185;50.872;5.306;2023-05-22T11:09:33;101259.66;;;18.26;87.77
25238;BME280;13185;50.872;5.306;2023-05-22T11:12:15;101260.09;;;18.31;88.13
25238;BME280;13185;50.872;5.306;2023-05-22T11:14:48;101254.25;;;18.35;88.25
25238;BME280;13185;50.872;5.306;2023-05-22T11:17:23;101254.84;;;18.49;88.28
25238;BME280;13185;50.872;5.306;2023-05-22T11:22:22;101256.47;;;18.70;87.29
25238;BME280;13185;50.872;5.306;2023-05-22T11:24:47;101247.47;;;18.80;86.10
25238;BME280;13185;50.872;5.306;2023-05-22T11:27:13;101257.88;;;18.84;86.36
25238;BME280;13185;50.872;5.306;2023-05-22T11:29:39;101251.91;;;18.90;85.86
25238;BME280;13185;50.872;5.306;2023-05-22T11:32:09;101247.88;;;18.94;85.56
25238;BME280;13185;50.872;5.306;2023-05-22T11:34:39;101249.19;;;19.00;84.76
25238;BME280;13185;50.872;5.306;2023-05-22T11:37:05;101251.19;;;19.08;84.74
25238;BME280;13185;50.872;5.306;2023-05-22T11:39:31;101247.28;;;19.20;84.31
25238;BME280;13185;50.872;5.306;2023-05-22T11:41:57;101252.44;;;19.23;83.74
25238;BME280;13185;50.872;5.306;2023-05-22T11:44:22;101246.25;;;19.30;83.70
25238;BME280;13185;50.872;5.306;2023-05-22T11:46:50;101247.34;;;19.47;83.39
25238;BME280;13185;50.872;5.306;2023-05-22T11:49:16;101239.78;;;19.60;82.71
25238;BME280;13185;50.872;5.306;2023-05-22T11:51:42;101240.31;;;19.64;82.65
25238;BME280;13185;50.872;5.306;2023-05-22T11:54:09;101236.72;;;19.73;82.12
25238;BME280;13185;50.872;5.306;2023-05-22T11:56:34;101233.66;;;19.86;81.48
25238;BME280;13185;50.872;5.306;2023-05-22T11:59:00;101235.31;;;19.97;80.16
25238;BME280;13185;50.872;5.306;2023-05-22T12:01:26;101237.50;;;20.11;80.01
25238;BME280;13185;50.872;5.306;2023-05-22T12:03:51;101239.44;;;20.28;79.31
25238;BME280;13185;50.872;5.306;2023-05-22T12:06:17;101226.44;;;20.40;78.55
25238;BME280;13185;50.872;5.306;2023-05-22T12:08:42;101231.63;;;20.61;79.28
25238;BME280;13185;50.872;5.306;2023-05-22T12:11:10;101230.63;;;20.80;78.64
25238;BME280;13185;50.872;5.306;2023-05-22T12:13:36;101232.78;;;20.94;77.18
25238;BME280;13185;50.872;5.306;2023-05-22T12:16:16;101225.56;;;20.85;76.32
25238;BME280;13185;50.872;5.306;2023-05-22T12:18:42;101225.94;;;20.90;75.86
25238;BME280;13185;50.872;5.306;2023-05-22T12:21:09;101227.47;;;20.92;75.88
25238;BME280;13185;50.872;5.306;2023-05-22T12:23:35;101223.81;;;20.84;76.10
25238;BME280;13185;50.872;5.306;2023-05-22T12:26:08;101222.84;;;20.85;76.55
25238;BME280;13185;50.872;5.306;2023-05-22T12:28:34;101216.22;;;20.87;76.57
25238;BME280;13185;50.872;5.306;2023-05-22T12:31:00;101224.06;;;20.90;76.88
25238;BME280;13185;50.872;5.306;2023-05-22T12:33:26;101218.34;;;21.01;76.59
25238;BME280;13185;50.872;5.306;2023-05-22T12:35:52;101214.84;;;21.09;76.14
25238;BME280;13185;50.872;5.306;2023-05-22T12:38:21;101219.97;;;21.12;75.30
25238;BME280;13185;50.872;5.306;2023-05-22T12:40:48;101219.81;;;21.14;75.15
25238;BME280;13185;50.872;5.306;2023-05-22T12:43:13;101208.13;;;21.21;74.94
25238;BME280;13185;50.872;5.306;2023-05-22T12:45:39;101214.84;;;21.27;74.42
25238;BME280;13185;50.872;5.306;2023-05-22T12:48:06;101214.56;;;21.38;75.30
25238;BME280;13185;50.872;5.306;2023-05-22T12:50:33;101211.75;;;21.56;74.23
25238;BME280;13185;50.872;5.306;2023-05-22T12:53:00;101215.22;;;21.66;74.35
25238;BME280;13185;50.872;5.306;2023-05-22T12:55:26;101210.66;;;21.75;74.70
25238;BME280;13185;50.872;5.306;2023-05-22T13:00:17;101198.03;;;22.08;73.57
25238;BME280;13185;50.872;5.306;2023-05-22T13:02:43;101207.09;;;22.16;72.23
25238;BME280;13185;50.872;5.306;2023-05-22T13:05:09;101207.31;;;22.23;71.29
25238;BME280;13185;50.872;5.306;2023-05-22T13:07:35;101212.22;;;22.19;70.62
25238;BME280;13185;50.872;5.306;2023-05-22T13:10:05;101216.78;;;22.03;70.97
25238;BME280;13185;50.872;5.306;2023-05-22T13:12:31;101220.69;;;22.00;70.77
25238;BME280;13185;50.872;5.306;2023-05-22T13:14:57;101213.09;;;22.12;71.20
25238;BME280;13185;50.872;5.306;2023-05-22T13:17:24;101212.44;;;22.26;70.44